Terminal Aerodrome Forecast
Issued by NWS

Home | Current Version | Previous Version | Text Only | Print | Product List | Glossary On
Versions: 1 2 3 4 5 6 7 8 9 10 11 12 13 14 15 16 17 18 19 20 21
000
FTUS41 KOKX 232000 AAA
TAFHPN
TAF AMD
KHPN 232032Z 2321/2418 18012KT P6SM BKN040
      TEMPO 2400/2404 28015G30KT 5SM TSRA BKN050CB
     FM240400 VRB05KT 5SM SHRA BR VCTS BKN040CB OVC120
      TEMPO 2404/2408 3SM TSRA BKN035CB
     FM240800 32005KT P6SM BKN050 OVC150
     FM241500 34008KT P6SM BKN050 BKN150
      AMD NOT SKED=

USA.gov is the U.S. government's official web portal to all federal, state and local government web resources and services.